sensor_id;sensor_type;location;lat;lon;timestamp;temperature;humidity
2757;DHT22;1386;50.862;6.494;2023-07-31T00:02:26;17.10;99.90
2757;DHT22;1386;50.862;6.494;2023-07-31T00:04:53;17.10;99.90
2757;DHT22;1386;50.862;6.494;2023-07-31T00:07:21;17.10;99.90
2757;DHT22;1386;50.862;6.494;2023-07-31T00:09:48;17.10;99.90
2757;DHT22;1386;50.862;6.494;2023-07-31T00:12:15;17.10;99.90
2757;DHT22;1386;50.862;6.494;2023-07-31T00:14:42;17.10;99.90
2757;DHT22;1386;50.862;6.494;2023-07-31T00:17:08;17.20;99.90
2757;DHT22;1386;50.862;6.494;2023-07-31T00:19:35;17.10;99.90
2757;DHT22;1386;50.862;6.494;2023-07-31T00:22:02;17.20;99.90
2757;DHT22;1386;50.862;6.494;2023-07-31T00:24:31;17.10;99.90
2757;DHT22;1386;50.862;6.494;2023-07-31T00:26:57;17.10;99.90
2757;DHT22;1386;50.862;6.494;2023-07-31T00:29:24;17.10;99.90
2757;DHT22;1386;50.862;6.494;2023-07-31T00:31:51;17.10;99.90
2757;DHT22;1386;50.862;6.494;2023-07-31T00:34:18;17.10;99.90
2757;DHT22;1386;50.862;6.494;2023-07-31T00:36:45;17.10;99.90
2757;DHT22;1386;50.862;6.494;2023-07-31T00:39:11;17.10;99.90
2757;DHT22;1386;50.862;6.494;2023-07-31T00:41:39;17.10;99.90
2757;DHT22;1386;50.862;6.494;2023-07-31T00:44:06;17.10;99.90
2757;DHT22;1386;50.862;6.494;2023-07-31T00:46:33;17.10;99.90
2757;DHT22;1386;50.862;6.494;2023-07-31T00:49:00;17.10;99.90
2757;DHT22;1386;50.862;6.494;2023-07-31T00:51:28;17.10;99.90
2757;DHT22;1386;50.862;6.494;2023-07-31T00:53:57;17.10;99.90
2757;DHT22;1386;50.862;6.494;2023-07-31T00:56:25;17.10;99.90
2757;DHT22;1386;50.862;6.494;2023-07-31T00:58:54;17.10;99.90
2757;DHT22;1386;50.862;6.494;2023-07-31T01:01:21;17.10;99.90
2757;DHT22;1386;50.862;6.494;2023-07-31T01:03:48;17.10;99.90
2757;DHT22;1386;50.862;6.494;2023-07-31T01:06:33;17.10;99.90
2757;DHT22;1386;50.862;6.494;2023-07-31T01:09:05;17.10;99.90
2757;DHT22;1386;50.862;6.494;2023-07-31T01:11:37;17.10;99.90
2757;DHT22;1386;50.862;6.494;2023-07-31T01:14:06;17.10;99.90
2757;DHT22;1386;50.862;6.494;2023-07-31T01:16:33;17.10;99.90
2757;DHT22;1386;50.862;6.494;2023-07-31T01:19:00;17.10;99.90
2757;DHT22;1386;50.862;6.494;2023-07-31T01:21:48;17.10;99.90
2757;DHT22;1386;50.862;6.494;2023-07-31T01:24:23;17.10;99.90
2757;DHT22;1386;50.862;6.494;2023-07-31T01:27:06;17.10;99.90
2757;DHT22;1386;50.862;6.494;2023-07-31T01:29:42;17.10;99.90
2757;DHT22;1386;50.862;6.494;2023-07-31T01:32:11;17.10;99.90
2757;DHT22;1386;50.862;6.494;2023-07-31T01:34:39;17.10;99.90
2757;DHT22;1386;50.862;6.494;2023-07-31T01:37:08;17.10;99.90
2757;DHT22;1386;50.862;6.494;2023-07-31T01:39:35;17.10;99.90
2757;DHT22;1386;50.862;6.494;2023-07-31T01:42:03;17.10;99.90
2757;DHT22;1386;50.862;6.494;2023-07-31T01:44:30;17.10;99.90
2757;DHT22;1386;50.862;6.494;2023-07-31T01:46:58;17.10;99.90
2757;DHT22;1386;50.862;6.494;2023-07-31T01:49:25;17.10;99.90
2757;DHT22;1386;50.862;6.494;2023-07-31T01:51:52;17.10;99.90
2757;DHT22;1386;50.862;6.494;2023-07-31T01:54:19;17.10;99.90
2757;DHT22;1386;50.862;6.494;2023-07-31T01:56:46;17.10;99.90
2757;DHT22;1386;50.862;6.494;2023-07-31T01:59:14;17.10;99.90
2757;DHT22;1386;50.862;6.494;2023-07-31T02:01:41;17.20;99.90
2757;DHT22;1386;50.862;6.494;2023-07-31T02:04:08;17.20;99.90
2757;DHT22;1386;50.862;6.494;2023-07-31T02:06:34;17.20;99.90
2757;DHT22;1386;50.862;6.494;2023-07-31T02:09:01;17.20;99.90
2757;DHT22;1386;50.862;6.494;2023-07-31T02:11:29;17.20;99.90
2757;DHT22;1386;50.862;6.494;2023-07-31T02:13:55;17.30;99.90
2757;DHT22;1386;50.862;6.494;2023-07-31T02:16:24;17.30;99.90
2757;DHT22;1386;50.862;6.494;2023-07-31T02:18:50;17.30;99.90
2757;DHT22;1386;50.862;6.494;2023-07-31T02:21:17;17.30;99.90
2757;DHT22;1386;50.862;6.494;2023-07-31T02:23:44;17.30;99.90
2757;DHT22;1386;50.862;6.494;2023-07-31T02:26:11;17.30;99.90
2757;DHT22;1386;50.862;6.494;2023-07-31T02:28:38;17.30;99.90
2757;DHT22;1386;50.862;6.494;2023-07-31T02:31:04;17.30;99.90
2757;DHT22;1386;50.862;6.494;2023-07-31T02:33:32;17.30;99.90
2757;DHT22;1386;50.862;6.494;2023-07-31T02:35:59;17.30;99.90
2757;DHT22;1386;50.862;6.494;2023-07-31T02:38:26;17.30;99.90
2757;DHT22;1386;50.862;6.494;2023-07-31T02:40:53;17.30;99.90
2757;DHT22;1386;50.862;6.494;2023-07-31T02:43:20;17.40;99.90
2757;DHT22;1386;50.862;6.494;2023-07-31T02:45:51;17.40;99.90
2757;DHT22;1386;50.862;6.494;2023-07-31T02:48:18;17.40;99.90
2757;DHT22;1386;50.862;6.494;2023-07-31T02:50:47;17.40;99.90
2757;DHT22;1386;50.862;6.494;2023-07-31T02:53:14;17.40;99.90
2757;DHT22;1386;50.862;6.494;2023-07-31T02:55:41;17.40;99.90
2757;DHT22;1386;50.862;6.494;2023-07-31T02:58:08;17.40;99.90
2757;DHT22;1386;50.862;6.494;2023-07-31T03:00:35;17.30;99.90
2757;DHT22;1386;50.862;6.494;2023-07-31T03:03:02;17.40;99.90
2757;DHT22;1386;50.862;6.494;2023-07-31T03:05:28;17.40;99.90
2757;DHT22;1386;50.862;6.494;2023-07-31T03:07:57;17.40;99.90
2757;DHT22;1386;50.862;6.494;2023-07-31T03:10:23;17.30;99.90
2757;DHT22;1386;50.862;6.494;2023-07-31T03:12:50;17.30;99.90
2757;DHT22;1386;50.862;6.494;2023-07-31T03:15:17;17.30;99.90
2757;DHT22;1386;50.862;6.494;2023-07-31T03:17:44;17.40;99.90
2757;DHT22;1386;50.862;6.494;2023-07-31T03:20:11;17.40;99.90
2757;DHT22;1386;50.862;6.494;2023-07-31T03:22:38;17.40;99.90
2757;DHT22;1386;50.862;6.494;2023-07-31T03:25:07;17.40;99.90
2757;DHT22;1386;50.862;6.494;2023-07-31T03:27:35;17.40;99.90
2757;DHT22;1386;50.862;6.494;2023-07-31T03:30:02;17.40;99.90
2757;DHT22;1386;50.862;6.494;2023-07-31T03:32:29;17.40;99.90
2757;DHT22;1386;50.862;6.494;2023-07-31T03:34:56;17.40;99.90
2757;DHT22;1386;50.862;6.494;2023-07-31T03:37:23;17.40;99.90
2757;DHT22;1386;50.862;6.494;2023-07-31T03:39:50;17.40;99.90
2757;DHT22;1386;50.862;6.494;2023-07-31T03:42:18;17.40;99.90
2757;DHT22;1386;50.862;6.494;2023-07-31T03:44:45;17.40;99.90
2757;DHT22;1386;50.862;6.494;2023-07-31T03:47:12;17.40;99.90
2757;DHT22;1386;50.862;6.494;2023-07-31T03:49:39;17.30;99.90
2757;DHT22;1386;50.862;6.494;2023-07-31T03:52:06;17.40;99.90
2757;DHT22;1386;50.862;6.494;2023-07-31T03:54:33;17.40;99.90
2757;DHT22;1386;50.862;6.494;2023-07-31T03:57:00;17.40;99.90
2757;DHT22;1386;50.862;6.494;2023-07-31T03:59:28;17.40;99.90
2757;DHT22;1386;50.862;6.494;2023-07-31T04:01:55;17.40;99.90
2757;DHT22;1386;50.862;6.494;2023-07-31T04:04:21;17.40;99.90
2757;DHT22;1386;50.862;6.494;2023-07-31T04:06:48;17.40;99.90
2757;DHT22;1386;50.862;6.494;2023-07-31T04:09:15;17.40;99.90
2757;DHT22;1386;50.862;6.494;2023-07-31T04:11:42;17.40;99.90
2757;DHT22;1386;50.862;6.494;2023-07-31T04:14:08;17.40;99.90
2757;DHT22;1386;50.862;6.494;2023-07-31T04:16:37;17.40;99.90
2757;DHT22;1386;50.862;6.494;2023-07-31T04:19:03;17.40;99.90
2757;DHT22;1386;50.862;6.494;2023-07-31T04:21:30;17.40;99.90
2757;DHT22;1386;50.862;6.494;2023-07-31T04:23:57;17.50;99.90
2757;DHT22;1386;50.862;6.494;2023-07-31T04:26:24;17.50;99.90
2757;DHT22;1386;50.862;6.494;2023-07-31T04:28:51;17.50;99.90
2757;DHT22;1386;50.862;6.494;2023-07-31T04:31:17;17.50;99.90
2757;DHT22;1386;50.862;6.494;2023-07-31T04:33:46;17.50;99.90
2757;DHT22;1386;50.862;6.494;2023-07-31T04:36:12;17.50;99.90
2757;DHT22;1386;50.862;6.494;2023-07-31T04:38:39;17.50;99.90
2757;DHT22;1386;50.862;6.494;2023-07-31T04:41:06;17.50;99.90
2757;DHT22;1386;50.862;6.494;2023-07-31T04:43:33;17.50;99.90
2757;DHT22;1386;50.862;6.494;2023-07-31T04:46:00;17.60;99.90
2757;DHT22;1386;50.862;6.494;2023-07-31T04:48:27;17.50;99.90
2757;DHT22;1386;50.862;6.494;2023-07-31T04:50:55;17.60;99.90
2757;DHT22;1386;50.862;6.494;2023-07-31T04:53:22;17.50;99.90
2757;DHT22;1386;50.862;6.494;2023-07-31T04:55:51;17.60;99.90
2757;DHT22;1386;50.862;6.494;2023-07-31T04:58:18;17.60;99.90
2757;DHT22;1386;50.862;6.494;2023-07-31T05:00:45;17.60;99.90
2757;DHT22;1386;50.862;6.494;2023-07-31T05:03:11;17.60;99.90
2757;DHT22;1386;50.862;6.494;2023-07-31T05:05:38;17.60;99.90
2757;DHT22;1386;50.862;6.494;2023-07-31T05:08:06;17.60;99.90
2757;DHT22;1386;50.862;6.494;2023-07-31T05:10:33;17.60;99.90
2757;DHT22;1386;50.862;6.494;2023-07-31T05:13:00;17.60;99.90
2757;DHT22;1386;50.862;6.494;2023-07-31T05:15:27;17.60;99.90
2757;DHT22;1386;50.862;6.494;2023-07-31T05:17:53;17.70;99.90
2757;DHT22;1386;50.862;6.494;2023-07-31T05:20:20;17.70;99.90
2757;DHT22;1386;50.862;6.494;2023-07-31T05:22:47;17.70;99.90
2757;DHT22;1386;50.862;6.494;2023-07-31T05:25:15;17.70;99.90
2757;DHT22;1386;50.862;6.494;2023-07-31T05:27:42;17.80;99.90
2757;DHT22;1386;50.862;6.494;2023-07-31T05:30:09;17.80;99.90
2757;DHT22;1386;50.862;6.494;2023-07-31T05:32:36;17.80;99.90
2757;DHT22;1386;50.862;6.494;2023-07-31T05:35:04;17.80;99.90
2757;DHT22;1386;50.862;6.494;2023-07-31T05:37:31;17.80;99.90
2757;DHT22;1386;50.862;6.494;2023-07-31T05:39:58;17.70;99.90
2757;DHT22;1386;50.862;6.494;2023-07-31T05:42:26;17.80;99.90
2757;DHT22;1386;50.862;6.494;2023-07-31T05:44:53;17.70;99.90
2757;DHT22;1386;50.862;6.494;2023-07-31T05:47:20;17.70;99.90
2757;DHT22;1386;50.862;6.494;2023-07-31T05:49:48;17.80;99.90
2757;DHT22;1386;50.862;6.494;2023-07-31T05:52:14;17.80;99.90
2757;DHT22;1386;50.862;6.494;2023-07-31T05:54:42;17.70;99.90
2757;DHT22;1386;50.862;6.494;2023-07-31T05:57:09;17.70;99.90
2757;DHT22;1386;50.862;6.494;2023-07-31T05:59:37;17.70;99.90
2757;DHT22;1386;50.862;6.494;2023-07-31T06:02:04;17.60;99.90
2757;DHT22;1386;50.862;6.494;2023-07-31T06:04:31;17.60;99.90
2757;DHT22;1386;50.862;6.494;2023-07-31T06:06:58;17.50;99.90
2757;DHT22;1386;50.862;6.494;2023-07-31T06:09:25;17.50;99.90
2757;DHT22;1386;50.862;6.494;2023-07-31T06:11:52;17.40;99.90
2757;DHT22;1386;50.862;6.494;2023-07-31T06:14:19;17.40;99.90
2757;DHT22;1386;50.862;6.494;2023-07-31T06:16:47;17.40;99.90
2757;DHT22;1386;50.862;6.494;2023-07-31T06:19:14;17.40;99.90
2757;DHT22;1386;50.862;6.494;2023-07-31T06:21:41;17.40;99.90
2757;DHT22;1386;50.862;6.494;2023-07-31T06:24:09;17.50;99.90
2757;DHT22;1386;50.862;6.494;2023-07-31T06:26:37;17.50;99.90
2757;DHT22;1386;50.862;6.494;2023-07-31T06:29:04;17.50;99.90
2757;DHT22;1386;50.862;6.494;2023-07-31T06:31:31;17.50;99.90
2757;DHT22;1386;50.862;6.494;2023-07-31T06:34:00;17.50;99.90
2757;DHT22;1386;50.862;6.494;2023-07-31T06:36:26;17.60;99.90
2757;DHT22;1386;50.862;6.494;2023-07-31T06:38:53;17.60;99.90
2757;DHT22;1386;50.862;6.494;2023-07-31T06:41:25;17.60;99.90
2757;DHT22;1386;50.862;6.494;2023-07-31T06:43:54;17.70;99.90
2757;DHT22;1386;50.862;6.494;2023-07-31T06:46:22;17.70;99.90
2757;DHT22;1386;50.862;6.494;2023-07-31T06:48:51;17.70;99.90
2757;DHT22;1386;50.862;6.494;2023-07-31T06:51:19;17.70;99.90
2757;DHT22;1386;50.862;6.494;2023-07-31T06:53:46;17.80;99.90
2757;DHT22;1386;50.862;6.494;2023-07-31T06:56:13;17.80;99.90
2757;DHT22;1386;50.862;6.494;2023-07-31T06:58:40;17.80;99.90
2757;DHT22;1386;50.862;6.494;2023-07-31T07:01:07;17.80;99.90
2757;DHT22;1386;50.862;6.494;2023-07-31T07:03:34;17.80;99.90
2757;DHT22;1386;50.862;6.494;2023-07-31T07:06:01;17.80;99.90
2757;DHT22;1386;50.862;6.494;2023-07-31T07:08:29;17.80;99.90
2757;DHT22;1386;50.862;6.494;2023-07-31T07:10:56;17.80;99.90
2757;DHT22;1386;50.862;6.494;2023-07-31T07:13:23;17.80;99.90
2757;DHT22;1386;50.862;6.494;2023-07-31T07:15:50;17.80;99.90
2757;DHT22;1386;50.862;6.494;2023-07-31T09:53:53;19.30;99.90
2757;DHT22;1386;50.862;6.494;2023-07-31T09:56:21;19.30;99.90
2757;DHT22;1386;50.862;6.494;2023-07-31T09:58:49;19.40;99.90
2757;DHT22;1386;50.862;6.494;2023-07-31T10:01:16;19.40;99.90
2757;DHT22;1386;50.862;6.494;2023-07-31T10:03:45;19.40;99.90
2757;DHT22;1386;50.862;6.494;2023-07-31T10:06:14;19.40;99.90
2757;DHT22;1386;50.862;6.494;2023-07-31T10:08:43;19.40;99.90
2757;DHT22;1386;50.862;6.494;2023-07-31T10:11:13;19.40;99.90
2757;DHT22;1386;50.862;6.494;2023-07-31T10:13:43;19.40;99.90
2757;DHT22;1386;50.862;6.494;2023-07-31T10:16:10;19.40;99.90
2757;DHT22;1386;50.862;6.494;2023-07-31T10:18:40;19.50;99.90
2757;DHT22;1386;50.862;6.494;2023-07-31T10:21:07;19.50;99.90
2757;DHT22;1386;50.862;6.494;2023-07-31T10:23:34;19.50;99.90
2757;DHT22;1386;50.862;6.494;2023-07-31T10:26:07;19.60;99.90
2757;DHT22;1386;50.862;6.494;2023-07-31T10:28:36;19.60;99.90
2757;DHT22;1386;50.862;6.494;2023-07-31T10:31:04;19.70;99.90
2757;DHT22;1386;50.862;6.494;2023-07-31T10:33:31;19.60;99.90
2757;DHT22;1386;50.862;6.494;2023-07-31T10:36:12;19.60;99.90
2757;DHT22;1386;50.862;6.494;2023-07-31T10:38:40;19.60;99.90
2757;DHT22;1386;50.862;6.494;2023-07-31T10:41:10;19.60;99.90
2757;DHT22;1386;50.862;6.494;2023-07-31T10:43:38;19.60;99.90
2757;DHT22;1386;50.862;6.494;2023-07-31T10:46:09;19.50;99.90
2757;DHT22;1386;50.862;6.494;2023-07-31T10:48:38;19.50;99.90
2757;DHT22;1386;50.862;6.494;2023-07-31T10:51:08;19.50;99.90
2757;DHT22;1386;50.862;6.494;2023-07-31T10:53:36;19.50;99.90
2757;DHT22;1386;50.862;6.494;2023-07-31T10:56:04;19.60;99.90
2757;DHT22;1386;50.862;6.494;2023-07-31T10:58:31;19.60;99.90
2757;DHT22;1386;50.862;6.494;2023-07-31T11:01:00;19.60;99.90
2757;DHT22;1386;50.862;6.494;2023-07-31T11:03:41;19.70;99.90
2757;DHT22;1386;50.862;6.494;2023-07-31T11:06:08;19.80;99.90
2757;DHT22;1386;50.862;6.494;2023-07-31T11:08:40;20.00;99.90
2757;DHT22;1386;50.862;6.494;2023-07-31T11:11:09;20.20;99.90
2757;DHT22;1386;50.862;6.494;2023-07-31T11:13:41;20.30;99.90
2757;DHT22;1386;50.862;6.494;2023-07-31T11:16:10;20.40;99.90
2757;DHT22;1386;50.862;6.494;2023-07-31T11:18:39;20.50;99.90
2757;DHT22;1386;50.862;6.494;2023-07-31T11:21:07;20.60;99.90
2757;DHT22;1386;50.862;6.494;2023-07-31T11:23:36;20.70;99.90
2757;DHT22;1386;50.862;6.494;2023-07-31T11:26:05;20.70;99.90
2757;DHT22;1386;50.862;6.494;2023-07-31T11:28:32;20.60;99.90
2757;DHT22;1386;50.862;6.494;2023-07-31T11:31:00;20.60;99.90
2757;DHT22;1386;50.862;6.494;2023-07-31T11:33:28;20.80;99.90
2757;DHT22;1386;50.862;6.494;2023-07-31T11:35:55;20.70;99.90
2757;DHT22;1386;50.862;6.494;2023-07-31T11:38:27;20.80;99.90
2757;DHT22;1386;50.862;6.494;2023-07-31T11:40:57;20.90;99.90
2757;DHT22;1386;50.862;6.494;2023-07-31T11:43:25;20.80;99.90
2757;DHT22;1386;50.862;6.494;2023-07-31T11:45:53;20.70;99.90
2757;DHT22;1386;50.862;6.494;2023-07-31T11:48:22;20.70;99.90
2757;DHT22;1386;50.862;6.494;2023-07-31T11:50:51;20.70;99.90
2757;DHT22;1386;50.862;6.494;2023-07-31T11:53:21;20.70;99.90
2757;DHT22;1386;50.862;6.494;2023-07-31T11:55:51;20.50;99.90
2757;DHT22;1386;50.862;6.494;2023-07-31T11:58:19;20.50;99.90
2757;DHT22;1386;50.862;6.494;2023-07-31T12:00:46;20.50;99.90
2757;DHT22;1386;50.862;6.494;2023-07-31T12:03:14;20.50;99.90
2757;DHT22;1386;50.862;6.494;2023-07-31T12:05:41;20.40;99.90
2757;DHT22;1386;50.862;6.494;2023-07-31T12:08:12;20.30;99.90
2757;DHT22;1386;50.862;6.494;2023-07-31T12:10:39;20.30;99.90
2757;DHT22;1386;50.862;6.494;2023-07-31T12:13:09;20.30;99.90
2757;DHT22;1386;50.862;6.494;2023-07-31T12:15:40;20.30;99.90
2757;DHT22;1386;50.862;6.494;2023-07-31T12:18:08;20.30;99.90
2757;DHT22;1386;50.862;6.494;2023-07-31T12:20:39;20.30;99.90
2757;DHT22;1386;50.862;6.494;2023-07-31T12:23:07;20.20;99.90
2757;DHT22;1386;50.862;6.494;2023-07-31T12:25:35;20.10;99.90
2757;DHT22;1386;50.862;6.494;2023-07-31T12:28:06;20.10;99.90
2757;DHT22;1386;50.862;6.494;2023-07-31T12:30:37;20.10;99.90
2757;DHT22;1386;50.862;6.494;2023-07-31T12:33:06;20.00;99.90
2757;DHT22;1386;50.862;6.494;2023-07-31T12:35:42;20.00;99.90
2757;DHT22;1386;50.862;6.494;2023-07-31T12:38:10;20.00;99.90
2757;DHT22;1386;50.862;6.494;2023-07-31T12:40:39;20.10;99.90
2757;DHT22;1386;50.862;6.494;2023-07-31T12:43:06;20.10;99.90
2757;DHT22;1386;50.862;6.494;2023-07-31T12:45:34;20.20;99.90
2757;DHT22;1386;50.862;6.494;2023-07-31T12:48:01;20.20;99.90
2757;DHT22;1386;50.862;6.494;2023-07-31T12:50:28;20.20;99.90
2757;DHT22;1386;50.862;6.494;2023-07-31T12:52:56;20.20;99.90
2757;DHT22;1386;50.862;6.494;2023-07-31T12:55:23;20.10;99.90
2757;DHT22;1386;50.862;6.494;2023-07-31T12:57:52;20.00;99.90
2757;DHT22;1386;50.862;6.494;2023-07-31T13:00:19;20.00;99.90
2757;DHT22;1386;50.862;6.494;2023-07-31T13:02:46;20.00;99.90
2757;DHT22;1386;50.862;6.494;2023-07-31T13:05:17;20.20;99.90
2757;DHT22;1386;50.862;6.494;2023-07-31T13:07:45;20.20;99.90
2757;DHT22;1386;50.862;6.494;2023-07-31T13:10:12;20.30;99.90
2757;DHT22;1386;50.862;6.494;2023-07-31T13:12:39;20.40;99.90
2757;DHT22;1386;50.862;6.494;2023-07-31T13:15:08;20.50;99.90
2757;DHT22;1386;50.862;6.494;2023-07-31T13:17:35;20.60;99.90
2757;DHT22;1386;50.862;6.494;2023-07-31T13:20:02;20.60;99.90
2757;DHT22;1386;50.862;6.494;2023-07-31T13:22:30;20.60;99.90
2757;DHT22;1386;50.862;6.494;2023-07-31T13:24:57;20.60;99.90
2757;DHT22;1386;50.862;6.494;2023-07-31T13:27:26;20.70;99.90
2757;DHT22;1386;50.862;6.494;2023-07-31T13:29:52;20.80;99.90
2757;DHT22;1386;50.862;6.494;2023-07-31T13:32:21;20.90;99.90
2757;DHT22;1386;50.862;6.494;2023-07-31T13:34:48;21.10;99.90
2757;DHT22;1386;50.862;6.494;2023-07-31T13:37:16;21.30;99.90
2757;DHT22;1386;50.862;6.494;2023-07-31T13:39:42;21.50;99.90
2757;DHT22;1386;50.862;6.494;2023-07-31T13:42:09;21.70;99.90
2757;DHT22;1386;50.862;6.494;2023-07-31T13:44:38;21.80;99.90
2757;DHT22;1386;50.862;6.494;2023-07-31T13:47:05;21.80;99.90
2757;DHT22;1386;50.862;6.494;2023-07-31T13:49:33;21.80;99.90
2757;DHT22;1386;50.862;6.494;2023-07-31T13:52:01;21.70;99.90
2757;DHT22;1386;50.862;6.494;2023-07-31T13:54:28;21.70;99.90
2757;DHT22;1386;50.862;6.494;2023-07-31T13:56:55;21.70;99.90
2757;DHT22;1386;50.862;6.494;2023-07-31T13:59:22;21.70;99.90
2757;DHT22;1386;50.862;6.494;2023-07-31T14:01:50;21.60;99.90
2757;DHT22;1386;50.862;6.494;2023-07-31T14:04:17;21.60;99.90
2757;DHT22;1386;50.862;6.494;2023-07-31T14:06:46;21.60;99.90
2757;DHT22;1386;50.862;6.494;2023-07-31T14:09:13;21.60;99.90
2757;DHT22;1386;50.862;6.494;2023-07-31T14:11:40;21.50;99.90
2757;DHT22;1386;50.862;6.494;2023-07-31T14:14:08;21.50;99.90
2757;DHT22;1386;50.862;6.494;2023-07-31T14:16:35;21.40;99.90
2757;DHT22;1386;50.862;6.494;2023-07-31T14:19:02;21.30;99.90
2757;DHT22;1386;50.862;6.494;2023-07-31T14:21:29;21.30;99.90
2757;DHT22;1386;50.862;6.494;2023-07-31T14:23:57;21.30;99.90
2757;DHT22;1386;50.862;6.494;2023-07-31T14:26:24;21.30;99.90
2757;DHT22;1386;50.862;6.494;2023-07-31T14:28:51;21.30;99.90
2757;DHT22;1386;50.862;6.494;2023-07-31T14:31:18;21.20;99.90
2757;DHT22;1386;50.862;6.494;2023-07-31T14:33:44;21.10;99.90
2757;DHT22;1386;50.862;6.494;2023-07-31T14:36:11;21.10;99.90
2757;DHT22;1386;50.862;6.494;2023-07-31T14:38:38;21.00;99.90
2757;DHT22;1386;50.862;6.494;2023-07-31T14:41:06;21.00;99.90
2757;DHT22;1386;50.862;6.494;2023-07-31T14:43:33;20.90;99.90
2757;DHT22;1386;50.862;6.494;2023-07-31T14:46:00;20.90;99.90
2757;DHT22;1386;50.862;6.494;2023-07-31T14:48:27;20.80;99.90
2757;DHT22;1386;50.862;6.494;2023-07-31T14:50:54;20.80;99.90
2757;DHT22;1386;50.862;6.494;2023-07-31T14:53:21;20.70;99.90
2757;DHT22;1386;50.862;6.494;2023-07-31T14:55:48;20.70;99.90
2757;DHT22;1386;50.862;6.494;2023-07-31T14:58:16;20.60;99.90
2757;DHT22;1386;50.862;6.494;2023-07-31T15:00:43;20.60;99.90
2757;DHT22;1386;50.862;6.494;2023-07-31T15:03:10;20.60;99.90
2757;DHT22;1386;50.862;6.494;2023-07-31T15:05:37;20.60;99.90
2757;DHT22;1386;50.862;6.494;2023-07-31T15:08:04;20.50;99.90
2757;DHT22;1386;50.862;6.494;2023-07-31T15:10:31;20.50;99.90
2757;DHT22;1386;50.862;6.494;2023-07-31T15:12:58;20.50;99.90
2757;DHT22;1386;50.862;6.494;2023-07-31T15:15:28;20.50;99.90
2757;DHT22;1386;50.862;6.494;2023-07-31T15:17:55;20.50;99.90
2757;DHT22;1386;50.862;6.494;2023-07-31T15:20:22;20.40;99.90
2757;DHT22;1386;50.862;6.494;2023-07-31T15:22:49;20.40;99.90
2757;DHT22;1386;50.862;6.494;2023-07-31T15:25:16;20.40;99.90
2757;DHT22;1386;50.862;6.494;2023-07-31T15:27:43;20.30;99.90
2757;DHT22;1386;50.862;6.494;2023-07-31T15:30:10;20.30;99.90
2757;DHT22;1386;50.862;6.494;2023-07-31T15:32:39;20.20;99.90
2757;DHT22;1386;50.862;6.494;2023-07-31T15:35:07;20.10;99.90
2757;DHT22;1386;50.862;6.494;2023-07-31T15:37:35;20.00;99.90
2757;DHT22;1386;50.862;6.494;2023-07-31T15:40:03;20.00;99.90
2757;DHT22;1386;50.862;6.494;2023-07-31T15:42:32;19.90;99.90
2757;DHT22;1386;50.862;6.494;2023-07-31T15:45:06;19.80;99.90
2757;DHT22;1386;50.862;6.494;2023-07-31T15:47:33;19.70;99.90
